createdAt,value
2023-05-04T00:02:18.819Z,11.12
2023-05-04T00:06:35.134Z,9.00
2023-05-04T00:10:51.566Z,9.15
2023-05-04T00:15:08.402Z,10.75
2023-05-04T00:19:24.770Z,9.30
2023-05-04T00:23:40.950Z,9.00
2023-05-04T00:27:57.357Z,11.73
2023-05-04T00:32:13.614Z,13.25
2023-05-04T00:36:29.874Z,9.80
2023-05-04T00:40:46.456Z,9.52
2023-05-04T00:45:02.792Z,8.57
2023-05-04T00:49:19.038Z,10.38
2023-05-04T00:53:36.426Z,12.37
2023-05-04T00:57:52.929Z,13.20
2023-05-04T01:02:09.525Z,11.38
2023-05-04T01:06:34.680Z,10.25
2023-05-04T01:10:56.852Z,10.00
2023-05-04T01:15:14.084Z,9.60
2023-05-04T01:19:30.434Z,9.93
2023-05-04T01:23:46.868Z,14.05
2023-05-04T01:28:13.917Z,11.98
2023-05-04T01:32:31.678Z,10.43
2023-05-04T01:36:48.394Z,12.18
2023-05-04T01:41:04.770Z,10.88
2023-05-04T01:45:21.772Z,10.88
2023-05-04T01:49:38.087Z,15.20
2023-05-04T01:53:54.420Z,10.50
2023-05-04T01:58:10.769Z,8.73
2023-05-04T02:02:27.133Z,12.15
2023-05-04T02:06:43.366Z,11.05
2023-05-04T02:10:59.637Z,8.65
2023-05-04T02:15:16.016Z,13.35
2023-05-04T02:19:32.228Z,10.30
2023-05-04T02:23:48.528Z,9.75
2023-05-04T02:28:04.813Z,10.90
2023-05-04T02:32:21.181Z,15.13
2023-05-04T02:36:37.438Z,11.77
2023-05-04T02:40:53.761Z,10.23
2023-05-04T02:45:10.444Z,12.20
2023-05-04T02:49:26.942Z,11.70
2023-05-04T02:53:43.243Z,11.98
2023-05-04T02:57:59.541Z,11.25
2023-05-04T03:02:15.791Z,10.25
2023-05-04T03:06:32.062Z,12.48
2023-05-04T03:10:48.308Z,12.98
2023-05-04T03:15:04.714Z,20.23
2023-05-04T03:19:22.313Z,9.00
2023-05-04T03:23:38.611Z,12.77
2023-05-04T03:27:54.889Z,12.37
2023-05-04T03:32:11.923Z,10.55
2023-05-04T03:36:28.384Z,22.83
2023-05-04T03:40:45.190Z,12.48
2023-05-04T03:45:03.841Z,11.70
2023-05-04T03:49:20.729Z,10.70
2023-05-04T03:53:37.102Z,13.60
2023-05-04T03:57:53.298Z,10.18
2023-05-04T04:02:09.637Z,14.55
2023-05-04T04:06:26.116Z,14.95
2023-05-04T04:10:42.568Z,10.55
2023-05-04T04:14:58.769Z,10.00
2023-05-04T04:19:15.082Z,11.98
2023-05-04T04:23:31.333Z,11.68
2023-05-04T04:27:47.590Z,12.40
2023-05-04T04:32:04.502Z,11.02
2023-05-04T04:36:21.029Z,11.40
2023-05-04T04:40:37.228Z,10.98
2023-05-04T04:44:53.733Z,8.43
2023-05-04T04:49:10.318Z,7.62
2023-05-04T04:53:26.774Z,7.30
2023-05-04T04:57:42.990Z,6.28
2023-05-04T05:01:59.531Z,7.22
2023-05-04T05:06:16.099Z,8.55
2023-05-04T05:10:32.493Z,5.78
2023-05-04T05:14:51.048Z,7.50
2023-05-04T05:19:07.953Z,8.93
2023-05-04T05:23:24.322Z,6.87
2023-05-04T05:27:40.570Z,4.85
2023-05-04T05:31:56.920Z,5.25
2023-05-04T05:36:14.721Z,6.28
2023-05-04T05:40:31.498Z,4.03
2023-05-04T05:44:47.964Z,5.10
2023-05-04T05:49:07.482Z,5.35
2023-05-04T05:53:24.024Z,7.25
2023-05-04T05:57:40.405Z,8.85
2023-05-04T06:01:56.639Z,5.20
2023-05-04T06:06:13.034Z,7.82
2023-05-04T06:10:29.503Z,3.92
2023-05-04T06:14:46.140Z,3.40
2023-05-04T06:19:02.307Z,6.10
2023-05-04T06:23:18.464Z,4.45
2023-05-04T06:27:34.838Z,4.85
2023-05-04T06:31:51.625Z,3.53
2023-05-04T06:36:08.228Z,3.17
2023-05-04T06:40:25.043Z,3.33
2023-05-04T06:44:41.677Z,4.32
2023-05-04T06:48:58.663Z,6.35
2023-05-04T06:53:15.358Z,3.20
2023-05-04T06:57:31.880Z,2.83
2023-05-04T07:01:48.500Z,4.90
2023-05-04T07:06:04.948Z,3.15
2023-05-04T07:10:21.142Z,8.07
2023-05-04T07:14:37.456Z,5.05
2023-05-04T07:18:53.750Z,4.62
2023-05-04T07:23:09.978Z,4.03
2023-05-04T07:27:26.226Z,2.85
2023-05-04T07:31:42.449Z,7.25
2023-05-04T07:35:59.661Z,7.03
2023-05-04T07:40:16.625Z,2.70
2023-05-04T07:44:33.318Z,2.22
2023-05-04T07:48:49.689Z,4.20
2023-05-04T07:53:05.899Z,3.28
2023-05-04T07:57:22.508Z,3.65
2023-05-04T08:01:38.795Z,2.30
2023-05-04T08:05:55.017Z,6.62
2023-05-04T08:10:11.472Z,5.12
2023-05-04T08:14:27.655Z,2.70
2023-05-04T08:18:43.991Z,3.50
2023-05-04T08:23:02.989Z,2.53
2023-05-04T08:27:19.339Z,4.03
2023-05-04T08:31:37.810Z,3.80
2023-05-04T08:35:54.086Z,3.47
2023-05-04T08:40:12.742Z,4.55
2023-05-04T08:44:29.481Z,4.75
2023-05-04T08:48:46.614Z,3.00
2023-05-04T08:53:05.959Z,3.42
2023-05-04T08:57:23.873Z,5.55
2023-05-04T09:01:40.522Z,4.03
2023-05-04T09:05:57.653Z,3.28
2023-05-04T09:10:13.910Z,3.33
2023-05-04T09:14:34.849Z,3.33
2023-05-04T09:18:51.529Z,4.75
2023-05-04T09:23:09.398Z,2.58
2023-05-04T09:27:26.052Z,3.35
2023-05-04T09:31:47.431Z,3.95
2023-05-04T09:36:18.380Z,2.00
2023-05-04T09:40:42.558Z,4.85
2023-05-04T09:45:08.390Z,6.12
2023-05-04T09:49:50.816Z,2.92
2023-05-04T09:54:07.429Z,6.37
2023-05-04T09:58:25.208Z,3.33
2023-05-04T10:02:42.621Z,3.45
2023-05-04T10:06:59.464Z,3.83
2023-05-04T10:11:18.865Z,3.72
2023-05-04T10:15:36.583Z,3.15
2023-05-04T10:20:07.929Z,3.05
2023-05-04T10:24:33.572Z,6.87
2023-05-04T10:29:19.710Z,3.97
2023-05-04T10:33:44.172Z,2.30
2023-05-04T10:42:17.079Z,3.72
2023-05-04T10:46:33.350Z,5.12
2023-05-04T10:50:50.761Z,4.15
2023-05-04T10:55:09.273Z,4.03
2023-05-04T10:59:25.577Z,5.70
2023-05-04T11:03:42.495Z,3.65
2023-05-04T11:12:16.729Z,2.55
2023-05-04T11:16:32.968Z,6.03
2023-05-04T11:20:49.347Z,4.37
2023-05-04T11:25:06.862Z,3.60
2023-05-04T11:29:23.176Z,5.15
2023-05-04T11:33:39.404Z,10.00
2023-05-04T11:37:56.594Z,5.65
2023-05-04T11:42:12.815Z,6.35
2023-05-04T11:46:29.331Z,3.72
2023-05-04T11:50:46.061Z,8.98
2023-05-04T11:55:03.584Z,11.50
2023-05-04T11:59:19.914Z,5.62
2023-05-04T12:03:53.320Z,6.00
2023-05-04T12:08:12.634Z,6.95
2023-05-04T12:12:36.531Z,5.78
2023-05-04T12:16:57.997Z,5.40
2023-05-04T12:21:19.934Z,4.20
2023-05-04T12:25:44.144Z,4.22
2023-05-04T12:30:08.311Z,4.10
2023-05-04T12:34:24.559Z,8.80
2023-05-04T12:38:40.842Z,8.55
2023-05-04T12:42:57.029Z,5.95
2023-05-04T12:47:14.375Z,5.43
2023-05-04T12:51:30.703Z,6.80
2023-05-04T12:55:46.941Z,4.07
2023-05-04T13:00:03.912Z,4.72
2023-05-04T13:04:20.321Z,4.47
2023-05-04T13:08:36.605Z,5.65
2023-05-04T13:12:52.968Z,6.20
2023-05-04T13:17:09.321Z,5.03
2023-05-04T13:21:25.661Z,7.40
2023-05-04T13:25:42.291Z,3.37
2023-05-04T13:30:01.262Z,3.72
2023-05-04T13:34:17.601Z,5.25
2023-05-04T13:38:33.829Z,3.45
2023-05-04T13:42:50.050Z,5.15
2023-05-04T13:47:06.360Z,5.45
2023-05-04T13:51:22.615Z,3.78
2023-05-04T13:55:38.842Z,13.02
2023-05-04T14:00:07.206Z,5.78
2023-05-04T14:04:24.547Z,6.45
2023-05-04T14:08:40.783Z,5.22
2023-05-04T14:12:57.154Z,13.93
2023-05-04T14:17:13.622Z,6.45
2023-05-04T14:21:29.893Z,7.53
2023-05-04T14:25:53.702Z,9.23
2023-05-04T14:30:10.653Z,6.12
2023-05-04T14:34:29.553Z,6.03
2023-05-04T14:38:46.023Z,5.62
2023-05-04T14:43:02.504Z,4.87
2023-05-04T14:47:19.750Z,7.43
2023-05-04T14:51:37.027Z,5.28
2023-05-04T14:55:53.334Z,6.53
2023-05-04T15:00:11.638Z,4.50
2023-05-04T15:04:28.043Z,7.25
2023-05-04T15:08:44.326Z,6.00
2023-05-04T15:13:01.890Z,10.77
2023-05-04T15:17:20.100Z,9.82
2023-05-04T15:21:36.658Z,5.20
2023-05-04T15:25:53.015Z,6.25
2023-05-04T15:30:10.246Z,5.37
2023-05-04T15:34:26.637Z,5.90
2023-05-04T15:38:43.787Z,5.62
2023-05-04T15:43:00.147Z,5.35
2023-05-04T15:47:16.359Z,4.93
2023-05-04T15:51:32.728Z,7.05
2023-05-04T15:55:50.876Z,7.37
2023-05-04T16:00:09.159Z,5.70
2023-05-04T16:04:25.398Z,5.60
2023-05-04T16:08:41.723Z,4.47
2023-05-04T16:13:04.251Z,4.87
2023-05-04T16:17:21.021Z,6.00
2023-05-04T16:21:37.259Z,6.93
2023-05-04T16:25:53.471Z,4.90
2023-05-04T16:30:10.218Z,4.97
2023-05-04T16:34:26.755Z,5.53
2023-05-04T16:38:43.190Z,8.75
2023-05-04T16:42:59.732Z,5.03
2023-05-04T16:47:16.431Z,6.75
2023-05-04T16:51:32.609Z,5.72
2023-05-04T16:55:51.110Z,7.72
2023-05-04T17:00:08.188Z,6.53
2023-05-04T17:04:25.480Z,8.98
2023-05-04T17:08:41.741Z,6.07
2023-05-04T17:12:59.220Z,7.82
2023-05-04T17:17:16.608Z,5.78
2023-05-04T17:21:33.161Z,9.77
2023-05-04T17:25:50.396Z,5.95
2023-05-04T17:30:07.564Z,5.43
2023-05-04T17:34:23.925Z,6.05
2023-05-04T17:38:41.500Z,5.18
2023-05-04T17:42:57.885Z,8.40
2023-05-04T17:47:14.162Z,7.20
2023-05-04T17:51:31.048Z,21.77
2023-05-04T17:55:47.255Z,7.80
2023-05-04T18:00:05.406Z,7.90
2023-05-04T18:04:21.829Z,7.15
2023-05-04T18:08:37.988Z,6.72
2023-05-04T18:12:56.472Z,7.50
2023-05-04T18:17:12.851Z,8.25
2023-05-04T18:21:29.097Z,7.82
2023-05-04T18:25:45.360Z,7.37
2023-05-04T18:30:02.452Z,7.50
2023-05-04T18:34:18.804Z,8.75
2023-05-04T18:38:36.378Z,7.35
2023-05-04T18:42:52.543Z,10.63
2023-05-04T18:47:09.234Z,7.05
2023-05-04T18:51:28.044Z,9.00
2023-05-04T18:55:44.305Z,12.05
2023-05-04T19:00:00.669Z,8.32
2023-05-04T19:04:16.877Z,13.90
2023-05-04T19:08:33.409Z,7.53
2023-05-04T19:12:50.692Z,11.25
2023-05-04T19:17:07.052Z,9.05
2023-05-04T19:21:23.332Z,8.30
2023-05-04T19:25:39.588Z,7.12
2023-05-04T19:29:56.292Z,10.27
2023-05-04T19:34:12.655Z,8.45
2023-05-04T19:38:28.954Z,9.90
2023-05-04T19:42:46.327Z,7.97
2023-05-04T19:47:02.648Z,8.57
2023-05-04T19:51:18.898Z,8.57
2023-05-04T19:55:36.411Z,7.10
2023-05-04T19:59:52.667Z,8.13
2023-05-04T20:04:08.921Z,8.73
2023-05-04T20:08:25.160Z,8.07
2023-05-04T20:12:41.525Z,8.20
2023-05-04T20:16:58.253Z,12.02
2023-05-04T20:21:14.802Z,8.07
2023-05-04T20:25:31.231Z,11.15
2023-05-04T20:29:47.598Z,7.65
2023-05-04T20:34:03.799Z,9.23
2023-05-04T20:38:20.086Z,9.07
2023-05-04T20:42:36.421Z,8.50
2023-05-04T20:46:52.606Z,10.63
2023-05-04T20:51:14.788Z,12.20
2023-05-04T20:55:31.848Z,11.00
2023-05-04T20:59:48.072Z,8.32
2023-05-04T21:04:04.462Z,8.00
2023-05-04T21:08:20.728Z,9.93
2023-05-04T21:12:37.047Z,8.52
2023-05-04T21:16:53.315Z,8.10
2023-05-04T21:21:09.630Z,9.23
2023-05-04T21:25:26.377Z,10.07
2023-05-04T21:29:42.541Z,9.13
2023-05-04T21:33:58.849Z,10.90
2023-05-04T21:38:15.203Z,13.43
2023-05-04T21:42:31.496Z,11.38
2023-05-04T21:46:47.823Z,10.10
2023-05-04T21:51:04.062Z,11.85
2023-05-04T21:55:20.541Z,10.68
2023-05-04T21:59:36.910Z,10.40
2023-05-04T22:03:53.332Z,8.77
2023-05-04T22:08:09.490Z,10.25
2023-05-04T22:12:26.244Z,8.48
2023-05-04T22:16:42.576Z,11.00
2023-05-04T22:20:58.832Z,11.30
2023-05-04T22:25:15.166Z,9.77
2023-05-04T22:29:34.062Z,9.95
2023-05-04T22:33:50.308Z,7.75
2023-05-04T22:38:07.004Z,8.68
2023-05-04T22:42:23.380Z,7.68
2023-05-04T22:46:39.877Z,8.85
2023-05-04T22:50:56.468Z,7.95
2023-05-04T22:55:12.684Z,10.73
2023-05-04T22:59:28.913Z,9.73
2023-05-04T23:03:45.557Z,8.75
2023-05-04T23:08:01.845Z,7.65
2023-05-04T23:12:18.255Z,8.95
2023-05-04T23:16:34.551Z,5.32
2023-05-04T23:20:51.020Z,5.35
2023-05-04T23:25:08.422Z,5.40
2023-05-04T23:29:24.764Z,4.87
2023-05-04T23:33:41.872Z,5.45
2023-05-04T23:37:58.374Z,7.25
2023-05-04T23:42:14.958Z,6.35
2023-05-04T23:46:31.346Z,6.03
2023-05-04T23:50:54.949Z,6.32
2023-05-04T23:55:11.323Z,7.65
2023-05-04T23:59:27.809Z,7.72
